sensor_id;sensor_type;location;lat;lon;timestamp;P1;durP1;ratioP1;P2;durP2;ratioP2
3997;SDS011;61314;53.444;9.902;2023-09-12T00:02:12;46.63;;;35.63;;
3997;SDS011;61314;53.444;9.902;2023-09-12T00:04:39;44.67;;;33.30;;
3997;SDS011;61314;53.444;9.902;2023-09-12T00:07:07;45.07;;;35.57;;
3997;SDS011;61314;53.444;9.902;2023-09-12T00:09:34;52.93;;;38.87;;
3997;SDS011;61314;53.444;9.902;2023-09-12T00:12:01;52.40;;;39.40;;
3997;SDS011;61314;53.444;9.902;2023-09-12T00:14:29;52.20;;;41.37;;
3997;SDS011;61314;53.444;9.902;2023-09-12T00:16:56;52.17;;;40.10;;
3997;SDS011;61314;53.444;9.902;2023-09-12T00:19:23;48.90;;;36.57;;
3997;SDS011;61314;53.444;9.902;2023-09-12T00:21:50;51.43;;;38.33;;
3997;SDS011;61314;53.444;9.902;2023-09-12T00:24:18;51.27;;;37.67;;
3997;SDS011;61314;53.444;9.902;2023-09-12T00:26:46;50.23;;;36.40;;
3997;SDS011;61314;53.444;9.902;2023-09-12T00:29:13;49.17;;;36.57;;
3997;SDS011;61314;53.444;9.902;2023-09-12T00:31:40;52.73;;;37.57;;
3997;SDS011;61314;53.444;9.902;2023-09-12T00:34:07;54.13;;;40.10;;
3997;SDS011;61314;53.444;9.902;2023-09-12T00:36:34;55.77;;;38.10;;
3997;SDS011;61314;53.444;9.902;2023-09-12T00:39:03;48.40;;;36.87;;
3997;SDS011;61314;53.444;9.902;2023-09-12T00:41:30;54.50;;;39.73;;
3997;SDS011;61314;53.444;9.902;2023-09-12T00:43:57;48.83;;;39.60;;
3997;SDS011;61314;53.444;9.902;2023-09-12T00:46:24;68.13;;;42.47;;
3997;SDS011;61314;53.444;9.902;2023-09-12T00:48:52;56.63;;;41.00;;
3997;SDS011;61314;53.444;9.902;2023-09-12T00:51:20;55.63;;;41.33;;
3997;SDS011;61314;53.444;9.902;2023-09-12T00:53:48;52.17;;;37.03;;
3997;SDS011;61314;53.444;9.902;2023-09-12T00:56:15;55.37;;;40.07;;
3997;SDS011;61314;53.444;9.902;2023-09-12T00:58:42;56.83;;;41.33;;
3997;SDS011;61314;53.444;9.902;2023-09-12T01:01:10;51.10;;;39.57;;
3997;SDS011;61314;53.444;9.902;2023-09-12T01:03:37;52.40;;;40.37;;
3997;SDS011;61314;53.444;9.902;2023-09-12T01:06:05;58.27;;;39.50;;
3997;SDS011;61314;53.444;9.902;2023-09-12T01:08:34;57.40;;;40.90;;
3997;SDS011;61314;53.444;9.902;2023-09-12T01:11:03;54.20;;;40.80;;
3997;SDS011;61314;53.444;9.902;2023-09-12T01:13:30;69.30;;;41.43;;
3997;SDS011;61314;53.444;9.902;2023-09-12T01:15:58;61.00;;;40.50;;
3997;SDS011;61314;53.444;9.902;2023-09-12T01:18:25;57.73;;;38.03;;
3997;SDS011;61314;53.444;9.902;2023-09-12T01:23:35;58.90;;;41.77;;
3997;SDS011;61314;53.444;9.902;2023-09-12T01:26:12;53.80;;;38.60;;
3997;SDS011;61314;53.444;9.902;2023-09-12T01:28:43;46.40;;;34.80;;
3997;SDS011;61314;53.444;9.902;2023-09-12T01:31:12;54.50;;;35.90;;
3997;SDS011;61314;53.444;9.902;2023-09-12T01:33:39;49.00;;;34.57;;
3997;SDS011;61314;53.444;9.902;2023-09-12T01:36:08;48.47;;;37.97;;
3997;SDS011;61314;53.444;9.902;2023-09-12T01:38:35;53.10;;;36.00;;
3997;SDS011;61314;53.444;9.902;2023-09-12T01:41:02;52.43;;;36.37;;
3997;SDS011;61314;53.444;9.902;2023-09-12T01:43:29;50.30;;;35.90;;
3997;SDS011;61314;53.444;9.902;2023-09-12T01:45:58;46.00;;;34.00;;
3997;SDS011;61314;53.444;9.902;2023-09-12T01:48:28;52.43;;;39.43;;
3997;SDS011;61314;53.444;9.902;2023-09-12T01:51:03;47.20;;;33.80;;
3997;SDS011;61314;53.444;9.902;2023-09-12T01:53:31;54.40;;;35.80;;
3997;SDS011;61314;53.444;9.902;2023-09-12T01:55:59;45.40;;;34.50;;
3997;SDS011;61314;53.444;9.902;2023-09-12T01:58:26;55.20;;;37.30;;
3997;SDS011;61314;53.444;9.902;2023-09-12T02:00:53;53.10;;;36.30;;
3997;SDS011;61314;53.444;9.902;2023-09-12T02:03:21;58.63;;;39.17;;
3997;SDS011;61314;53.444;9.902;2023-09-12T02:05:48;60.53;;;36.20;;
3997;SDS011;61314;53.444;9.902;2023-09-12T02:08:15;57.73;;;39.70;;
3997;SDS011;61314;53.444;9.902;2023-09-12T02:10:42;62.93;;;40.00;;
3997;SDS011;61314;53.444;9.902;2023-09-12T02:13:09;57.33;;;40.93;;
3997;SDS011;61314;53.444;9.902;2023-09-12T02:15:36;53.03;;;37.87;;
3997;SDS011;61314;53.444;9.902;2023-09-12T02:18:04;57.77;;;40.77;;
3997;SDS011;61314;53.444;9.902;2023-09-12T02:20:31;54.73;;;38.03;;
3997;SDS011;61314;53.444;9.902;2023-09-12T02:22:59;60.43;;;43.23;;
3997;SDS011;61314;53.444;9.902;2023-09-12T02:25:26;67.03;;;42.37;;
3997;SDS011;61314;53.444;9.902;2023-09-12T02:27:53;75.70;;;42.50;;
3997;SDS011;61314;53.444;9.902;2023-09-12T02:30:20;66.87;;;44.40;;
3997;SDS011;61314;53.444;9.902;2023-09-12T02:32:47;64.00;;;43.50;;
3997;SDS011;61314;53.444;9.902;2023-09-12T02:35:14;59.73;;;42.03;;
3997;SDS011;61314;53.444;9.902;2023-09-12T02:37:41;55.47;;;37.47;;
3997;SDS011;61314;53.444;9.902;2023-09-12T02:40:09;61.53;;;39.83;;
3997;SDS011;61314;53.444;9.902;2023-09-12T02:42:38;52.70;;;36.73;;
3997;SDS011;61314;53.444;9.902;2023-09-12T02:45:05;51.83;;;37.03;;
3997;SDS011;61314;53.444;9.902;2023-09-12T02:47:32;55.47;;;38.60;;
3997;SDS011;61314;53.444;9.902;2023-09-12T02:50:00;62.67;;;42.30;;
3997;SDS011;61314;53.444;9.902;2023-09-12T02:52:27;60.93;;;41.77;;
3997;SDS011;61314;53.444;9.902;2023-09-12T02:54:54;62.73;;;43.33;;
3997;SDS011;61314;53.444;9.902;2023-09-12T02:57:21;64.33;;;44.30;;
3997;SDS011;61314;53.444;9.902;2023-09-12T02:59:48;64.60;;;43.27;;
3997;SDS011;61314;53.444;9.902;2023-09-12T03:02:15;67.93;;;43.10;;
3997;SDS011;61314;53.444;9.902;2023-09-12T03:04:42;58.97;;;44.57;;
3997;SDS011;61314;53.444;9.902;2023-09-12T03:07:09;69.27;;;44.80;;
3997;SDS011;61314;53.444;9.902;2023-09-12T03:09:37;70.30;;;46.27;;
3997;SDS011;61314;53.444;9.902;2023-09-12T03:12:04;65.23;;;42.50;;
3997;SDS011;61314;53.444;9.902;2023-09-12T03:14:32;65.37;;;44.57;;
3997;SDS011;61314;53.444;9.902;2023-09-12T03:16:59;70.73;;;46.50;;
3997;SDS011;61314;53.444;9.902;2023-09-12T03:19:26;60.53;;;41.43;;
3997;SDS011;61314;53.444;9.902;2023-09-12T03:21:53;66.47;;;44.30;;
3997;SDS011;61314;53.444;9.902;2023-09-12T03:24:20;56.30;;;41.40;;
3997;SDS011;61314;53.444;9.902;2023-09-12T03:26:51;67.57;;;43.77;;
3997;SDS011;61314;53.444;9.902;2023-09-12T03:29:18;57.60;;;40.20;;
3997;SDS011;61314;53.444;9.902;2023-09-12T03:31:45;65.17;;;42.67;;
3997;SDS011;61314;53.444;9.902;2023-09-12T03:34:12;66.57;;;41.90;;
3997;SDS011;61314;53.444;9.902;2023-09-12T03:36:39;67.50;;;42.03;;
3997;SDS011;61314;53.444;9.902;2023-09-12T03:39:06;66.40;;;42.90;;
3997;SDS011;61314;53.444;9.902;2023-09-12T03:41:35;62.17;;;44.13;;
3997;SDS011;61314;53.444;9.902;2023-09-12T03:44:02;61.03;;;41.40;;
3997;SDS011;61314;53.444;9.902;2023-09-12T03:46:29;52.03;;;37.40;;
3997;SDS011;61314;53.444;9.902;2023-09-12T03:48:56;49.23;;;35.87;;
3997;SDS011;61314;53.444;9.902;2023-09-12T03:51:23;50.07;;;37.80;;
3997;SDS011;61314;53.444;9.902;2023-09-12T03:53:50;56.07;;;38.97;;
3997;SDS011;61314;53.444;9.902;2023-09-12T03:56:18;61.47;;;39.47;;
3997;SDS011;61314;53.444;9.902;2023-09-12T03:58:46;47.67;;;35.13;;
3997;SDS011;61314;53.444;9.902;2023-09-12T04:01:14;55.27;;;38.57;;
3997;SDS011;61314;53.444;9.902;2023-09-12T04:03:41;59.67;;;39.73;;
3997;SDS011;61314;53.444;9.902;2023-09-12T04:06:08;55.80;;;37.93;;
3997;SDS011;61314;53.444;9.902;2023-09-12T04:08:36;43.47;;;32.80;;
3997;SDS011;61314;53.444;9.902;2023-09-12T04:11:03;48.97;;;35.67;;
3997;SDS011;61314;53.444;9.902;2023-09-12T04:13:30;55.07;;;34.57;;
3997;SDS011;61314;53.444;9.902;2023-09-12T04:15:57;55.93;;;38.23;;
3997;SDS011;61314;53.444;9.902;2023-09-12T04:18:24;50.53;;;36.60;;
3997;SDS011;61314;53.444;9.902;2023-09-12T04:20:51;53.80;;;35.87;;
3997;SDS011;61314;53.444;9.902;2023-09-12T04:23:18;49.53;;;32.17;;
3997;SDS011;61314;53.444;9.902;2023-09-12T04:25:46;47.60;;;32.20;;
3997;SDS011;61314;53.444;9.902;2023-09-12T04:28:13;51.13;;;34.30;;
3997;SDS011;61314;53.444;9.902;2023-09-12T04:30:40;51.60;;;34.27;;
3997;SDS011;61314;53.444;9.902;2023-09-12T04:33:11;39.30;;;32.60;;
3997;SDS011;61314;53.444;9.902;2023-09-12T04:35:37;51.70;;;33.87;;
3997;SDS011;61314;53.444;9.902;2023-09-12T04:38:04;42.97;;;33.47;;
3997;SDS011;61314;53.444;9.902;2023-09-12T04:40:31;51.93;;;36.03;;
3997;SDS011;61314;53.444;9.902;2023-09-12T04:42:57;45.30;;;34.77;;
3997;SDS011;61314;53.444;9.902;2023-09-12T04:45:24;54.20;;;36.00;;
3997;SDS011;61314;53.444;9.902;2023-09-12T04:47:51;65.67;;;39.47;;
3997;SDS011;61314;53.444;9.902;2023-09-12T04:50:17;52.70;;;36.60;;
3997;SDS011;61314;53.444;9.902;2023-09-12T04:52:44;47.17;;;33.40;;
3997;SDS011;61314;53.444;9.902;2023-09-12T04:55:11;44.73;;;32.93;;
3997;SDS011;61314;53.444;9.902;2023-09-12T04:57:37;51.03;;;36.30;;
3997;SDS011;61314;53.444;9.902;2023-09-12T05:00:07;49.47;;;34.17;;
3997;SDS011;61314;53.444;9.902;2023-09-12T05:02:35;51.33;;;33.93;;
3997;SDS011;61314;53.444;9.902;2023-09-12T05:05:01;58.03;;;37.33;;
3997;SDS011;61314;53.444;9.902;2023-09-12T05:07:29;50.77;;;35.10;;
3997;SDS011;61314;53.444;9.902;2023-09-12T05:09:55;46.97;;;34.20;;
3997;SDS011;61314;53.444;9.902;2023-09-12T05:12:22;44.07;;;32.37;;
3997;SDS011;61314;53.444;9.902;2023-09-12T05:14:49;46.87;;;33.23;;
3997;SDS011;61314;53.444;9.902;2023-09-12T05:17:15;47.23;;;32.63;;
3997;SDS011;61314;53.444;9.902;2023-09-12T05:19:42;42.20;;;32.20;;
3997;SDS011;61314;53.444;9.902;2023-09-12T05:22:09;55.80;;;35.20;;
3997;SDS011;61314;53.444;9.902;2023-09-12T05:24:35;43.07;;;30.03;;
3997;SDS011;61314;53.444;9.902;2023-09-12T05:27:02;54.73;;;33.37;;
3997;SDS011;61314;53.444;9.902;2023-09-12T05:29:31;50.43;;;34.20;;
3997;SDS011;61314;53.444;9.902;2023-09-12T05:31:58;54.90;;;34.53;;
3997;SDS011;61314;53.444;9.902;2023-09-12T05:34:25;50.60;;;34.67;;
3997;SDS011;61314;53.444;9.902;2023-09-12T05:36:52;49.43;;;34.57;;
3997;SDS011;61314;53.444;9.902;2023-09-12T05:39:20;46.23;;;32.70;;
3997;SDS011;61314;53.444;9.902;2023-09-12T05:41:47;53.17;;;34.77;;
3997;SDS011;61314;53.444;9.902;2023-09-12T05:44:14;47.87;;;32.63;;
3997;SDS011;61314;53.444;9.902;2023-09-12T05:46:45;40.13;;;30.40;;
3997;SDS011;61314;53.444;9.902;2023-09-12T05:49:13;41.70;;;27.50;;
3997;SDS011;61314;53.444;9.902;2023-09-12T05:51:40;52.00;;;33.63;;
3997;SDS011;61314;53.444;9.902;2023-09-12T05:54:09;49.33;;;33.87;;
3997;SDS011;61314;53.444;9.902;2023-09-12T05:56:36;44.27;;;32.27;;
3997;SDS011;61314;53.444;9.902;2023-09-12T05:59:04;49.80;;;34.40;;
3997;SDS011;61314;53.444;9.902;2023-09-12T06:01:31;53.80;;;36.23;;
3997;SDS011;61314;53.444;9.902;2023-09-12T06:03:58;53.33;;;35.37;;
3997;SDS011;61314;53.444;9.902;2023-09-12T06:06:25;54.13;;;35.43;;
3997;SDS011;61314;53.444;9.902;2023-09-12T06:08:52;52.10;;;35.50;;
3997;SDS011;61314;53.444;9.902;2023-09-12T06:11:19;47.17;;;35.17;;
3997;SDS011;61314;53.444;9.902;2023-09-12T06:13:46;52.27;;;35.73;;
3997;SDS011;61314;53.444;9.902;2023-09-12T06:16:14;55.00;;;37.07;;
3997;SDS011;61314;53.444;9.902;2023-09-12T06:18:41;56.17;;;37.43;;
3997;SDS011;61314;53.444;9.902;2023-09-12T06:21:08;65.87;;;39.70;;
3997;SDS011;61314;53.444;9.902;2023-09-12T06:23:36;60.47;;;36.73;;
3997;SDS011;61314;53.444;9.902;2023-09-12T06:26:03;70.50;;;39.40;;
3997;SDS011;61314;53.444;9.902;2023-09-12T06:28:30;59.97;;;37.47;;
3997;SDS011;61314;53.444;9.902;2023-09-12T06:30:58;64.37;;;36.27;;
3997;SDS011;61314;53.444;9.902;2023-09-12T06:33:26;56.27;;;36.33;;
3997;SDS011;61314;53.444;9.902;2023-09-12T06:35:53;46.93;;;33.00;;
3997;SDS011;61314;53.444;9.902;2023-09-12T06:38:21;46.07;;;31.57;;
3997;SDS011;61314;53.444;9.902;2023-09-12T06:40:50;44.70;;;31.73;;
3997;SDS011;61314;53.444;9.902;2023-09-12T06:43:17;51.83;;;35.10;;
3997;SDS011;61314;53.444;9.902;2023-09-12T06:45:45;48.83;;;33.40;;
3997;SDS011;61314;53.444;9.902;2023-09-12T06:48:12;50.03;;;33.53;;
3997;SDS011;61314;53.444;9.902;2023-09-12T06:50:39;52.80;;;34.17;;
3997;SDS011;61314;53.444;9.902;2023-09-12T06:53:08;46.27;;;30.30;;
3997;SDS011;61314;53.444;9.902;2023-09-12T06:55:36;46.20;;;31.60;;
3997;SDS011;61314;53.444;9.902;2023-09-12T06:58:03;43.10;;;30.10;;
3997;SDS011;61314;53.444;9.902;2023-09-12T07:00:30;53.10;;;36.20;;
3997;SDS011;61314;53.444;9.902;2023-09-12T07:02:58;70.10;;;47.20;;
3997;SDS011;61314;53.444;9.902;2023-09-12T07:05:25;69.83;;;49.20;;
3997;SDS011;61314;53.444;9.902;2023-09-12T07:07:52;56.13;;;43.90;;
3997;SDS011;61314;53.444;9.902;2023-09-12T07:10:20;57.00;;;41.17;;
3997;SDS011;61314;53.444;9.902;2023-09-12T07:12:51;53.90;;;37.10;;
3997;SDS011;61314;53.444;9.902;2023-09-12T07:15:19;47.40;;;34.83;;
3997;SDS011;61314;53.444;9.902;2023-09-12T07:17:47;52.30;;;36.50;;
3997;SDS011;61314;53.444;9.902;2023-09-12T07:20:14;50.20;;;35.07;;
3997;SDS011;61314;53.444;9.902;2023-09-12T07:22:42;54.20;;;36.67;;
3997;SDS011;61314;53.444;9.902;2023-09-12T07:25:09;48.50;;;35.73;;
3997;SDS011;61314;53.444;9.902;2023-09-12T07:27:38;48.00;;;36.57;;
3997;SDS011;61314;53.444;9.902;2023-09-12T07:30:06;48.97;;;36.30;;
3997;SDS011;61314;53.444;9.902;2023-09-12T07:32:33;55.57;;;35.53;;
3997;SDS011;61314;53.444;9.902;2023-09-12T07:35:00;56.57;;;37.77;;
3997;SDS011;61314;53.444;9.902;2023-09-12T07:37:27;51.10;;;36.50;;
3997;SDS011;61314;53.444;9.902;2023-09-12T07:39:54;57.97;;;36.10;;
3997;SDS011;61314;53.444;9.902;2023-09-12T07:42:22;47.30;;;33.40;;
3997;SDS011;61314;53.444;9.902;2023-09-12T07:44:49;44.30;;;32.30;;
3997;SDS011;61314;53.444;9.902;2023-09-12T07:47:17;44.40;;;33.23;;
3997;SDS011;61314;53.444;9.902;2023-09-12T07:49:44;43.93;;;32.03;;
3997;SDS011;61314;53.444;9.902;2023-09-12T07:52:11;45.73;;;30.57;;
3997;SDS011;61314;53.444;9.902;2023-09-12T07:54:38;42.63;;;30.40;;
3997;SDS011;61314;53.444;9.902;2023-09-12T07:57:05;41.60;;;29.40;;
3997;SDS011;61314;53.444;9.902;2023-09-12T07:59:33;43.47;;;31.37;;
3997;SDS011;61314;53.444;9.902;2023-09-12T08:02:00;49.53;;;32.57;;
3997;SDS011;61314;53.444;9.902;2023-09-12T08:04:28;46.47;;;33.47;;
3997;SDS011;61314;53.444;9.902;2023-09-12T08:06:55;46.77;;;32.27;;
3997;SDS011;61314;53.444;9.902;2023-09-12T08:12:11;51.40;;;36.60;;
3997;SDS011;61314;53.444;9.902;2023-09-12T08:14:38;61.10;;;42.80;;
3997;SDS011;61314;53.444;9.902;2023-09-12T08:17:05;60.53;;;41.17;;
3997;SDS011;61314;53.444;9.902;2023-09-12T08:19:33;57.50;;;39.30;;
3997;SDS011;61314;53.444;9.902;2023-09-12T08:22:00;55.80;;;39.10;;
3997;SDS011;61314;53.444;9.902;2023-09-12T08:24:28;53.47;;;38.57;;
3997;SDS011;61314;53.444;9.902;2023-09-12T08:26:55;51.20;;;36.93;;
3997;SDS011;61314;53.444;9.902;2023-09-12T08:29:22;51.17;;;34.27;;
3997;SDS011;61314;53.444;9.902;2023-09-12T08:31:50;54.87;;;36.57;;
3997;SDS011;61314;53.444;9.902;2023-09-12T08:34:22;66.13;;;40.37;;
3997;SDS011;61314;53.444;9.902;2023-09-12T08:36:49;57.50;;;39.57;;
3997;SDS011;61314;53.444;9.902;2023-09-12T08:39:18;58.90;;;36.80;;
3997;SDS011;61314;53.444;9.902;2023-09-12T08:41:49;55.53;;;36.20;;
3997;SDS011;61314;53.444;9.902;2023-09-12T08:44:17;59.40;;;37.77;;
3997;SDS011;61314;53.444;9.902;2023-09-12T08:46:45;54.40;;;38.40;;
3997;SDS011;61314;53.444;9.902;2023-09-12T08:49:12;62.27;;;39.67;;
3997;SDS011;61314;53.444;9.902;2023-09-12T08:51:39;66.03;;;43.57;;
3997;SDS011;61314;53.444;9.902;2023-09-12T08:54:06;72.47;;;42.20;;
3997;SDS011;61314;53.444;9.902;2023-09-12T08:56:36;68.73;;;42.87;;
3997;SDS011;61314;53.444;9.902;2023-09-12T08:59:06;65.50;;;43.27;;
3997;SDS011;61314;53.444;9.902;2023-09-12T09:01:34;62.87;;;38.97;;
3997;SDS011;61314;53.444;9.902;2023-09-12T09:04:02;72.37;;;40.87;;
3997;SDS011;61314;53.444;9.902;2023-09-12T09:06:30;65.57;;;41.30;;
3997;SDS011;61314;53.444;9.902;2023-09-12T09:09:05;66.20;;;41.20;;
3997;SDS011;61314;53.444;9.902;2023-09-12T09:11:34;65.77;;;42.37;;
3997;SDS011;61314;53.444;9.902;2023-09-12T09:14:02;68.60;;;42.60;;
3997;SDS011;61314;53.444;9.902;2023-09-12T09:16:29;59.50;;;38.87;;
3997;SDS011;61314;53.444;9.902;2023-09-12T09:19:03;57.83;;;40.13;;
3997;SDS011;61314;53.444;9.902;2023-09-12T09:21:37;59.10;;;40.00;;
3997;SDS011;61314;53.444;9.902;2023-09-12T09:24:07;61.33;;;40.23;;
3997;SDS011;61314;53.444;9.902;2023-09-12T09:26:41;51.60;;;36.63;;
3997;SDS011;61314;53.444;9.902;2023-09-12T09:29:09;58.17;;;36.67;;
3997;SDS011;61314;53.444;9.902;2023-09-12T09:31:40;52.63;;;38.00;;
3997;SDS011;61314;53.444;9.902;2023-09-12T09:34:15;52.43;;;37.43;;
3997;SDS011;61314;53.444;9.902;2023-09-12T09:36:43;56.90;;;39.50;;
3997;SDS011;61314;53.444;9.902;2023-09-12T09:39:10;49.60;;;38.20;;
3997;SDS011;61314;53.444;9.902;2023-09-12T09:41:39;51.53;;;36.63;;
3997;SDS011;61314;53.444;9.902;2023-09-12T09:44:07;48.70;;;34.17;;
3997;SDS011;61314;53.444;9.902;2023-09-12T09:46:37;48.97;;;36.00;;
3997;SDS011;61314;53.444;9.902;2023-09-12T09:49:04;48.47;;;35.80;;
3997;SDS011;61314;53.444;9.902;2023-09-12T09:51:33;42.37;;;32.57;;
3997;SDS011;61314;53.444;9.902;2023-09-12T09:54:08;41.70;;;33.20;;
3997;SDS011;61314;53.444;9.902;2023-09-12T09:56:48;38.23;;;32.23;;
3997;SDS011;61314;53.444;9.902;2023-09-12T09:59:16;40.50;;;31.00;;
3997;SDS011;61314;53.444;9.902;2023-09-12T10:01:45;43.10;;;34.63;;
3997;SDS011;61314;53.444;9.902;2023-09-12T10:04:12;41.90;;;32.40;;
3997;SDS011;61314;53.444;9.902;2023-09-12T10:06:39;49.60;;;36.77;;
3997;SDS011;61314;53.444;9.902;2023-09-12T10:09:10;43.90;;;34.63;;
3997;SDS011;61314;53.444;9.902;2023-09-12T10:11:39;41.00;;;32.63;;
3997;SDS011;61314;53.444;9.902;2023-09-12T10:14:06;35.97;;;30.00;;
3997;SDS011;61314;53.444;9.902;2023-09-12T10:16:35;38.10;;;31.93;;
3997;SDS011;61314;53.444;9.902;2023-09-12T10:21:54;48.43;;;35.47;;
3997;SDS011;61314;53.444;9.902;2023-09-12T10:24:47;42.03;;;33.07;;
3997;SDS011;61314;53.444;9.902;2023-09-12T10:27:16;43.80;;;33.47;;
3997;SDS011;61314;53.444;9.902;2023-09-12T10:29:44;46.70;;;36.07;;
3997;SDS011;61314;53.444;9.902;2023-09-12T10:32:14;43.97;;;33.10;;
3997;SDS011;61314;53.444;9.902;2023-09-12T10:34:41;48.07;;;36.13;;
3997;SDS011;61314;53.444;9.902;2023-09-12T10:37:11;43.67;;;35.37;;
3997;SDS011;61314;53.444;9.902;2023-09-12T10:39:42;44.93;;;33.27;;
3997;SDS011;61314;53.444;9.902;2023-09-12T10:42:09;40.57;;;32.87;;
3997;SDS011;61314;53.444;9.902;2023-09-12T10:44:38;40.93;;;33.80;;
3997;SDS011;61314;53.444;9.902;2023-09-12T10:47:05;45.63;;;35.20;;
3997;SDS011;61314;53.444;9.902;2023-09-12T10:49:33;43.90;;;33.40;;
3997;SDS011;61314;53.444;9.902;2023-09-12T10:52:00;44.50;;;34.40;;
3997;SDS011;61314;53.444;9.902;2023-09-12T10:54:37;41.60;;;34.90;;
3997;SDS011;61314;53.444;9.902;2023-09-12T10:57:11;42.03;;;33.93;;
3997;SDS011;61314;53.444;9.902;2023-09-12T11:02:26;37.00;;;30.00;;
3997;SDS011;61314;53.444;9.902;2023-09-12T11:04:58;35.80;;;28.20;;
3997;SDS011;61314;53.444;9.902;2023-09-12T11:12:50;31.20;;;26.37;;
3997;SDS011;61314;53.444;9.902;2023-09-12T11:15:19;31.47;;;25.57;;
3997;SDS011;61314;53.444;9.902;2023-09-12T11:17:49;27.77;;;23.40;;
3997;SDS011;61314;53.444;9.902;2023-09-12T11:20:25;28.00;;;24.43;;
3997;SDS011;61314;53.444;9.902;2023-09-12T11:22:52;26.90;;;23.80;;
3997;SDS011;61314;53.444;9.902;2023-09-12T11:25:21;30.27;;;23.60;;
3997;SDS011;61314;53.444;9.902;2023-09-12T11:30:16;25.07;;;22.17;;
3997;SDS011;61314;53.444;9.902;2023-09-12T11:32:45;23.13;;;20.63;;
3997;SDS011;61314;53.444;9.902;2023-09-12T11:35:14;25.40;;;19.20;;
3997;SDS011;61314;53.444;9.902;2023-09-12T11:37:50;23.27;;;20.30;;
3997;SDS011;61314;53.444;9.902;2023-09-12T11:40:22;22.67;;;19.90;;
3997;SDS011;61314;53.444;9.902;2023-09-12T11:43:08;21.50;;;19.30;;
3997;SDS011;61314;53.444;9.902;2023-09-12T11:45:44;21.50;;;19.20;;
3997;SDS011;61314;53.444;9.902;2023-09-12T11:48:11;21.63;;;19.43;;
3997;SDS011;61314;53.444;9.902;2023-09-12T11:50:38;20.60;;;17.83;;
3997;SDS011;61314;53.444;9.902;2023-09-12T11:53:11;22.60;;;18.20;;
3997;SDS011;61314;53.444;9.902;2023-09-12T11:55:42;22.53;;;17.83;;
3997;SDS011;61314;53.444;9.902;2023-09-12T11:58:13;19.80;;;17.73;;
3997;SDS011;61314;53.444;9.902;2023-09-12T12:00:54;19.07;;;17.07;;
3997;SDS011;61314;53.444;9.902;2023-09-12T12:03:23;17.37;;;15.90;;
3997;SDS011;61314;53.444;9.902;2023-09-12T12:05:51;18.70;;;16.80;;
3997;SDS011;61314;53.444;9.902;2023-09-12T12:08:20;16.50;;;14.80;;
3997;SDS011;61314;53.444;9.902;2023-09-12T12:10:58;20.63;;;17.50;;
3997;SDS011;61314;53.444;9.902;2023-09-12T12:13:25;20.33;;;16.60;;
3997;SDS011;61314;53.444;9.902;2023-09-12T12:15:55;17.77;;;16.07;;
3997;SDS011;61314;53.444;9.902;2023-09-12T12:18:22;20.20;;;16.80;;
3997;SDS011;61314;53.444;9.902;2023-09-12T12:20:49;17.50;;;15.70;;
3997;SDS011;61314;53.444;9.902;2023-09-12T12:23:16;16.83;;;15.10;;
3997;SDS011;61314;53.444;9.902;2023-09-12T12:25:42;16.23;;;14.60;;
3997;SDS011;61314;53.444;9.902;2023-09-12T12:28:09;20.17;;;15.33;;
3997;SDS011;61314;53.444;9.902;2023-09-12T12:30:36;21.23;;;17.40;;
3997;SDS011;61314;53.444;9.902;2023-09-12T12:33:07;19.80;;;16.90;;
3997;SDS011;61314;53.444;9.902;2023-09-12T12:36:02;19.47;;;17.40;;
3997;SDS011;61314;53.444;9.902;2023-09-12T12:38:33;17.43;;;15.70;;
3997;SDS011;61314;53.444;9.902;2023-09-12T12:41:03;16.13;;;14.50;;
3997;SDS011;61314;53.444;9.902;2023-09-12T12:43:30;19.00;;;16.20;;
3997;SDS011;61314;53.444;9.902;2023-09-12T12:45:58;17.63;;;15.83;;
3997;SDS011;61314;53.444;9.902;2023-09-12T12:48:35;16.93;;;15.17;;
3997;SDS011;61314;53.444;9.902;2023-09-12T12:51:15;16.87;;;15.30;;
3997;SDS011;61314;53.444;9.902;2023-09-12T12:53:47;20.87;;;15.77;;
3997;SDS011;61314;53.444;9.902;2023-09-12T12:56:20;17.03;;;15.30;;
3997;SDS011;61314;53.444;9.902;2023-09-12T13:01:16;16.47;;;14.87;;
3997;SDS011;61314;53.444;9.902;2023-09-12T13:03:44;17.77;;;15.97;;
3997;SDS011;61314;53.444;9.902;2023-09-12T13:06:11;17.83;;;15.93;;
3997;SDS011;61314;53.444;9.902;2023-09-12T13:08:44;16.63;;;15.07;;
3997;SDS011;61314;53.444;9.902;2023-09-12T13:11:12;18.37;;;16.63;;
3997;SDS011;61314;53.444;9.902;2023-09-12T13:13:43;16.67;;;14.90;;
3997;SDS011;61314;53.444;9.902;2023-09-12T13:16:11;16.37;;;14.87;;
3997;SDS011;61314;53.444;9.902;2023-09-12T13:18:39;18.50;;;16.63;;
3997;SDS011;61314;53.444;9.902;2023-09-12T13:21:07;19.30;;;17.40;;
3997;SDS011;61314;53.444;9.902;2023-09-12T13:23:35;20.70;;;18.60;;
3997;SDS011;61314;53.444;9.902;2023-09-12T13:26:03;19.07;;;17.27;;
3997;SDS011;61314;53.444;9.902;2023-09-12T13:28:30;23.00;;;20.20;;
3997;SDS011;61314;53.444;9.902;2023-09-12T13:30:58;19.83;;;18.03;;
3997;SDS011;61314;53.444;9.902;2023-09-12T13:33:25;20.33;;;18.30;;
3997;SDS011;61314;53.444;9.902;2023-09-12T13:35:51;22.00;;;19.67;;
3997;SDS011;61314;53.444;9.902;2023-09-12T13:38:18;23.07;;;19.60;;
3997;SDS011;61314;53.444;9.902;2023-09-12T13:40:46;21.73;;;19.63;;
3997;SDS011;61314;53.444;9.902;2023-09-12T13:43:13;24.17;;;21.67;;
3997;SDS011;61314;53.444;9.902;2023-09-12T13:45:40;23.03;;;20.13;;
3997;SDS011;61314;53.444;9.902;2023-09-12T13:48:07;21.23;;;19.17;;
3997;SDS011;61314;53.444;9.902;2023-09-12T13:50:34;21.63;;;18.50;;
3997;SDS011;61314;53.444;9.902;2023-09-12T13:53:01;23.80;;;20.83;;
3997;SDS011;61314;53.444;9.902;2023-09-12T13:55:35;21.00;;;18.80;;
3997;SDS011;61314;53.444;9.902;2023-09-12T13:58:23;23.07;;;20.67;;
3997;SDS011;61314;53.444;9.902;2023-09-12T14:00:55;21.60;;;19.30;;
3997;SDS011;61314;53.444;9.902;2023-09-12T14:03:22;23.43;;;20.13;;
3997;SDS011;61314;53.444;9.902;2023-09-12T14:05:49;21.63;;;19.50;;
3997;SDS011;61314;53.444;9.902;2023-09-12T14:08:17;24.40;;;21.70;;
3997;SDS011;61314;53.444;9.902;2023-09-12T14:10:44;23.03;;;20.80;;
3997;SDS011;61314;53.444;9.902;2023-09-12T14:13:11;24.03;;;21.73;;
3997;SDS011;61314;53.444;9.902;2023-09-12T14:15:41;27.27;;;19.80;;
3997;SDS011;61314;53.444;9.902;2023-09-12T14:18:08;20.27;;;18.20;;
3997;SDS011;61314;53.444;9.902;2023-09-12T14:20:36;21.77;;;19.50;;
3997;SDS011;61314;53.444;9.902;2023-09-12T14:23:03;23.03;;;20.80;;
3997;SDS011;61314;53.444;9.902;2023-09-12T14:25:31;21.30;;;19.07;;
3997;SDS011;61314;53.444;9.902;2023-09-12T14:27:58;25.30;;;19.90;;
3997;SDS011;61314;53.444;9.902;2023-09-12T14:30:25;19.83;;;17.90;;
3997;SDS011;61314;53.444;9.902;2023-09-12T14:33:00;21.73;;;19.10;;
3997;SDS011;61314;53.444;9.902;2023-09-12T14:35:28;20.13;;;18.00;;
3997;SDS011;61314;53.444;9.902;2023-09-12T14:37:55;17.50;;;15.67;;
3997;SDS011;61314;53.444;9.902;2023-09-12T14:40:23;19.20;;;17.30;;
3997;SDS011;61314;53.444;9.902;2023-09-12T14:42:50;19.60;;;17.60;;
3997;SDS011;61314;53.444;9.902;2023-09-12T14:45:17;18.87;;;16.97;;
3997;SDS011;61314;53.444;9.902;2023-09-12T14:47:43;18.77;;;15.70;;
3997;SDS011;61314;53.444;9.902;2023-09-12T14:50:10;17.23;;;15.40;;
3997;SDS011;61314;53.444;9.902;2023-09-12T14:52:37;17.10;;;15.27;;
3997;SDS011;61314;53.444;9.902;2023-09-12T14:55:05;14.70;;;13.30;;
3997;SDS011;61314;53.444;9.902;2023-09-12T14:57:33;15.23;;;13.80;;
3997;SDS011;61314;53.444;9.902;2023-09-12T15:00:00;14.63;;;13.40;;
3997;SDS011;61314;53.444;9.902;2023-09-12T15:02:27;13.50;;;12.17;;